<?xml version="1.0" encoding="UTF-8" standalone="no" ?>
<gpx xmlns="http://www.topografix.com/GPX/1/1" xmlns:xsi="http://www.w3.org/2001/XMLSchema-instance" xsi:schemaLocation="http://www.topografix.com/GPX/1/1 http://www.topografix.com/GPX/1/1/gpx.xsd" version="1.1" creator="VisuGPX - https://www.visugpx.com">
  <metadata>
    <name>Rando2C Roseraie Diesen/ Albert/ 12 pers</name>
    <desc><![CDATA[Walkmeter Marche 6 déc. 2018 à 14:05:33]]></desc>
  </metadata>
  <trk>
    <name><![CDATA[Nouveau parcours]]></name>
    <trkseg>
      <trkpt lat="49.19912" lon="6.69123">
        <ele>210.5</ele>
        <time>2018-12-06T13:05:35Z</time>
      </trkpt>
      <trkpt lat="49.19912" lon="6.69123">
        <ele>210.5</ele>
        <time>2018-12-06T13:06:12Z</time>
      </trkpt>
      <trkpt lat="49.19903" lon="6.69117">
        <ele>210.8</ele>
        <time>2018-12-06T13:06:22Z</time>
      </trkpt>
      <trkpt lat="49.19892" lon="6.69105">
        <ele>210.9</ele>
        <time>2018-12-06T13:06:33Z</time>
      </trkpt>
      <trkpt lat="49.19883" lon="6.69092">
        <ele>211</ele>
        <time>2018-12-06T13:06:47Z</time>
      </trkpt>
      <trkpt lat="49.19879" lon="6.69076">
        <ele>211.1</ele>
        <time>2018-12-06T13:06:59Z</time>
      </trkpt>
      <trkpt lat="49.19871" lon="6.69067">
        <ele>211.2</ele>
        <time>2018-12-06T13:07:07Z</time>
      </trkpt>
      <trkpt lat="49.19859" lon="6.69057">
        <ele>211.3</ele>
        <time>2018-12-06T13:07:18Z</time>
      </trkpt>
      <trkpt lat="49.19847" lon="6.69046">
        <ele>211.4</ele>
        <time>2018-12-06T13:07:33Z</time>
      </trkpt>
      <trkpt lat="49.19838" lon="6.69032">
        <ele>211.6</ele>
        <time>2018-12-06T13:07:46Z</time>
      </trkpt>
      <trkpt lat="49.1983" lon="6.69013">
        <ele>211.7</ele>
        <time>2018-12-06T13:07:57Z</time>
      </trkpt>
      <trkpt lat="49.19824" lon="6.68994">
        <ele>211.8</ele>
        <time>2018-12-06T13:08:08Z</time>
      </trkpt>
      <trkpt lat="49.19816" lon="6.68977">
        <ele>211.9</ele>
        <time>2018-12-06T13:08:19Z</time>
      </trkpt>
      <trkpt lat="49.19808" lon="6.6896">
        <ele>212</ele>
        <time>2018-12-06T13:08:31Z</time>
      </trkpt>
      <trkpt lat="49.19801" lon="6.68942">
        <ele>212.1</ele>
        <time>2018-12-06T13:08:41Z</time>
      </trkpt>
      <trkpt lat="49.19795" lon="6.68922">
        <ele>212.1</ele>
        <time>2018-12-06T13:08:50Z</time>
      </trkpt>
      <trkpt lat="49.19789" lon="6.68901">
        <ele>212.3</ele>
        <time>2018-12-06T13:09:01Z</time>
      </trkpt>
      <trkpt lat="49.19782" lon="6.68881">
        <ele>212.3</ele>
        <time>2018-12-06T13:09:11Z</time>
      </trkpt>
      <trkpt lat="49.19776" lon="6.68861">
        <ele>212.4</ele>
        <time>2018-12-06T13:09:21Z</time>
      </trkpt>
      <trkpt lat="49.19768" lon="6.68842">
        <ele>212.5</ele>
        <time>2018-12-06T13:09:33Z</time>
      </trkpt>
      <trkpt lat="49.1976" lon="6.68825">
        <ele>212.7</ele>
        <time>2018-12-06T13:09:45Z</time>
      </trkpt>
      <trkpt lat="49.19752" lon="6.68806">
        <ele>212.8</ele>
        <time>2018-12-06T13:09:55Z</time>
      </trkpt>
      <trkpt lat="49.19743" lon="6.6879">
        <ele>212.8</ele>
        <time>2018-12-06T13:10:05Z</time>
      </trkpt>
      <trkpt lat="49.19734" lon="6.68775">
        <ele>212.9</ele>
        <time>2018-12-06T13:10:15Z</time>
      </trkpt>
      <trkpt lat="49.19728" lon="6.68756">
        <ele>213</ele>
        <time>2018-12-06T13:10:25Z</time>
      </trkpt>
      <trkpt lat="49.19722" lon="6.68737">
        <ele>213.1</ele>
        <time>2018-12-06T13:10:35Z</time>
      </trkpt>
      <trkpt lat="49.19714" lon="6.68718">
        <ele>213.2</ele>
        <time>2018-12-06T13:10:46Z</time>
      </trkpt>
      <trkpt lat="49.19706" lon="6.68702">
        <ele>213.3</ele>
        <time>2018-12-06T13:10:56Z</time>
      </trkpt>
      <trkpt lat="49.19705" lon="6.687">
        <ele>213.3</ele>
        <time>2018-12-06T13:10:57Z</time>
      </trkpt>
      <trkpt lat="49.19697" lon="6.68681">
        <ele>213.2</ele>
        <time>2018-12-06T13:11:08Z</time>
      </trkpt>
      <trkpt lat="49.1969" lon="6.68662">
        <ele>213.1</ele>
        <time>2018-12-06T13:11:19Z</time>
      </trkpt>
      <trkpt lat="49.19682" lon="6.68645">
        <ele>213.1</ele>
        <time>2018-12-06T13:11:29Z</time>
      </trkpt>
      <trkpt lat="49.19674" lon="6.68627">
        <ele>213</ele>
        <time>2018-12-06T13:11:39Z</time>
      </trkpt>
      <trkpt lat="49.19666" lon="6.68608">
        <ele>212.9</ele>
        <time>2018-12-06T13:11:50Z</time>
      </trkpt>
      <trkpt lat="49.19659" lon="6.68589">
        <ele>212.8</ele>
        <time>2018-12-06T13:12:01Z</time>
      </trkpt>
      <trkpt lat="49.19653" lon="6.68569">
        <ele>212.7</ele>
        <time>2018-12-06T13:12:12Z</time>
      </trkpt>
      <trkpt lat="49.19648" lon="6.68549">
        <ele>212.6</ele>
        <time>2018-12-06T13:12:22Z</time>
      </trkpt>
      <trkpt lat="49.19643" lon="6.68531">
        <ele>212.5</ele>
        <time>2018-12-06T13:12:32Z</time>
      </trkpt>
      <trkpt lat="49.19637" lon="6.68511">
        <ele>212.4</ele>
        <time>2018-12-06T13:12:45Z</time>
      </trkpt>
      <trkpt lat="49.19628" lon="6.68494">
        <ele>212.3</ele>
        <time>2018-12-06T13:12:57Z</time>
      </trkpt>
      <trkpt lat="49.19619" lon="6.68476">
        <ele>212.3</ele>
        <time>2018-12-06T13:13:07Z</time>
      </trkpt>
      <trkpt lat="49.1961" lon="6.68458">
        <ele>212.2</ele>
        <time>2018-12-06T13:13:17Z</time>
      </trkpt>
      <trkpt lat="49.19603" lon="6.68441">
        <ele>212.1</ele>
        <time>2018-12-06T13:13:26Z</time>
      </trkpt>
      <trkpt lat="49.19594" lon="6.68421">
        <ele>212</ele>
        <time>2018-12-06T13:13:36Z</time>
      </trkpt>
      <trkpt lat="49.19586" lon="6.68403">
        <ele>211.9</ele>
        <time>2018-12-06T13:13:46Z</time>
      </trkpt>
      <trkpt lat="49.19577" lon="6.68386">
        <ele>211.8</ele>
        <time>2018-12-06T13:13:58Z</time>
      </trkpt>
      <trkpt lat="49.19567" lon="6.68376">
        <ele>211.8</ele>
        <time>2018-12-06T13:14:08Z</time>
      </trkpt>
      <trkpt lat="49.19555" lon="6.68366">
        <ele>211.7</ele>
        <time>2018-12-06T13:14:19Z</time>
      </trkpt>
      <trkpt lat="49.19543" lon="6.68353">
        <ele>211.6</ele>
        <time>2018-12-06T13:14:30Z</time>
      </trkpt>
      <trkpt lat="49.19533" lon="6.68338">
        <ele>211.5</ele>
        <time>2018-12-06T13:14:40Z</time>
      </trkpt>
      <trkpt lat="49.19524" lon="6.6832">
        <ele>211.4</ele>
        <time>2018-12-06T13:14:52Z</time>
      </trkpt>
      <trkpt lat="49.19517" lon="6.68303">
        <ele>211.3</ele>
        <time>2018-12-06T13:15:04Z</time>
      </trkpt>
      <trkpt lat="49.19508" lon="6.68286">
        <ele>211.2</ele>
        <time>2018-12-06T13:15:16Z</time>
      </trkpt>
      <trkpt lat="49.19499" lon="6.68271">
        <ele>211.1</ele>
        <time>2018-12-06T13:15:26Z</time>
      </trkpt>
      <trkpt lat="49.1949" lon="6.68253">
        <ele>211</ele>
        <time>2018-12-06T13:15:36Z</time>
      </trkpt>
      <trkpt lat="49.19485" lon="6.68233">
        <ele>211</ele>
        <time>2018-12-06T13:15:45Z</time>
      </trkpt>
      <trkpt lat="49.19485" lon="6.68213">
        <ele>210.9</ele>
        <time>2018-12-06T13:15:54Z</time>
      </trkpt>
      <trkpt lat="49.19483" lon="6.68192">
        <ele>210.8</ele>
        <time>2018-12-06T13:16:05Z</time>
      </trkpt>
      <trkpt lat="49.19473" lon="6.68178">
        <ele>210.7</ele>
        <time>2018-12-06T13:16:15Z</time>
      </trkpt>
      <trkpt lat="49.19461" lon="6.68163">
        <ele>210.6</ele>
        <time>2018-12-06T13:16:27Z</time>
      </trkpt>
      <trkpt lat="49.19452" lon="6.68147">
        <ele>210.5</ele>
        <time>2018-12-06T13:16:39Z</time>
      </trkpt>
      <trkpt lat="49.19442" lon="6.6813">
        <ele>210.4</ele>
        <time>2018-12-06T13:16:51Z</time>
      </trkpt>
      <trkpt lat="49.19432" lon="6.68115">
        <ele>210.3</ele>
        <time>2018-12-06T13:17:02Z</time>
      </trkpt>
      <trkpt lat="49.19432" lon="6.68114">
        <ele>210.3</ele>
        <time>2018-12-06T13:17:03Z</time>
      </trkpt>
      <trkpt lat="49.19423" lon="6.68098">
        <ele>210.5</ele>
        <time>2018-12-06T13:17:12Z</time>
      </trkpt>
      <trkpt lat="49.19413" lon="6.68083">
        <ele>210.7</ele>
        <time>2018-12-06T13:17:21Z</time>
      </trkpt>
      <trkpt lat="49.194" lon="6.68075">
        <ele>211</ele>
        <time>2018-12-06T13:17:31Z</time>
      </trkpt>
      <trkpt lat="49.19388" lon="6.68067">
        <ele>211.2</ele>
        <time>2018-12-06T13:17:41Z</time>
      </trkpt>
      <trkpt lat="49.19375" lon="6.68057">
        <ele>211.4</ele>
        <time>2018-12-06T13:17:51Z</time>
      </trkpt>
      <trkpt lat="49.19361" lon="6.68052">
        <ele>211.6</ele>
        <time>2018-12-06T13:18:02Z</time>
      </trkpt>
      <trkpt lat="49.19347" lon="6.68051">
        <ele>211.9</ele>
        <time>2018-12-06T13:18:13Z</time>
      </trkpt>
      <trkpt lat="49.19333" lon="6.68051">
        <ele>212.1</ele>
        <time>2018-12-06T13:18:24Z</time>
      </trkpt>
      <trkpt lat="49.1932" lon="6.68049">
        <ele>212.4</ele>
        <time>2018-12-06T13:18:35Z</time>
      </trkpt>
      <trkpt lat="49.19306" lon="6.68046">
        <ele>212.6</ele>
        <time>2018-12-06T13:18:46Z</time>
      </trkpt>
      <trkpt lat="49.19298" lon="6.68058">
        <ele>212.9</ele>
        <time>2018-12-06T13:18:57Z</time>
      </trkpt>
      <trkpt lat="49.19295" lon="6.68079">
        <ele>213.1</ele>
        <time>2018-12-06T13:19:07Z</time>
      </trkpt>
      <trkpt lat="49.19292" lon="6.68102">
        <ele>213.3</ele>
        <time>2018-12-06T13:19:17Z</time>
      </trkpt>
      <trkpt lat="49.19291" lon="6.68108">
        <ele>213.4</ele>
        <time>2018-12-06T13:19:20Z</time>
      </trkpt>
      <trkpt lat="49.19289" lon="6.68123">
        <ele>213.6</ele>
        <time>2018-12-06T13:19:27Z</time>
      </trkpt>
      <trkpt lat="49.19285" lon="6.68144">
        <ele>214</ele>
        <time>2018-12-06T13:19:39Z</time>
      </trkpt>
      <trkpt lat="49.19278" lon="6.6815">
        <ele>214.6</ele>
        <time>2018-12-06T13:19:57Z</time>
      </trkpt>
      <trkpt lat="49.19266" lon="6.6814">
        <ele>215.2</ele>
        <time>2018-12-06T13:20:14Z</time>
      </trkpt>
      <trkpt lat="49.19254" lon="6.68127">
        <ele>215.7</ele>
        <time>2018-12-06T13:20:27Z</time>
      </trkpt>
      <trkpt lat="49.19245" lon="6.68112">
        <ele>216</ele>
        <time>2018-12-06T13:20:38Z</time>
      </trkpt>
      <trkpt lat="49.19239" lon="6.68099">
        <ele>216.3</ele>
        <time>2018-12-06T13:20:47Z</time>
      </trkpt>
      <trkpt lat="49.19237" lon="6.68094">
        <ele>216.4</ele>
        <time>2018-12-06T13:20:50Z</time>
      </trkpt>
      <trkpt lat="49.1923" lon="6.68077">
        <ele>215.9</ele>
        <time>2018-12-06T13:21:01Z</time>
      </trkpt>
      <trkpt lat="49.19223" lon="6.68064">
        <ele>215.3</ele>
        <time>2018-12-06T13:21:12Z</time>
      </trkpt>
      <trkpt lat="49.19216" lon="6.6805">
        <ele>214.8</ele>
        <time>2018-12-06T13:21:23Z</time>
      </trkpt>
      <trkpt lat="49.19209" lon="6.68031">
        <ele>214.1</ele>
        <time>2018-12-06T13:21:37Z</time>
      </trkpt>
      <trkpt lat="49.19199" lon="6.68014">
        <ele>213.4</ele>
        <time>2018-12-06T13:21:50Z</time>
      </trkpt>
      <trkpt lat="49.19195" lon="6.67999">
        <ele>213.1</ele>
        <time>2018-12-06T13:21:56Z</time>
      </trkpt>
      <trkpt lat="49.192" lon="6.67981">
        <ele>213.1</ele>
        <time>2018-12-06T13:22:07Z</time>
      </trkpt>
      <trkpt lat="49.19206" lon="6.67962">
        <ele>213.2</ele>
        <time>2018-12-06T13:22:22Z</time>
      </trkpt>
      <trkpt lat="49.19202" lon="6.67945">
        <ele>213.2</ele>
        <time>2018-12-06T13:22:33Z</time>
      </trkpt>
      <trkpt lat="49.19192" lon="6.67931">
        <ele>213.3</ele>
        <time>2018-12-06T13:22:42Z</time>
      </trkpt>
      <trkpt lat="49.19181" lon="6.67915">
        <ele>213.3</ele>
        <time>2018-12-06T13:22:53Z</time>
      </trkpt>
      <trkpt lat="49.1917" lon="6.67901">
        <ele>213.4</ele>
        <time>2018-12-06T13:23:04Z</time>
      </trkpt>
      <trkpt lat="49.1916" lon="6.67887">
        <ele>213.4</ele>
        <time>2018-12-06T13:23:15Z</time>
      </trkpt>
      <trkpt lat="49.1915" lon="6.67871">
        <ele>213.5</ele>
        <time>2018-12-06T13:23:27Z</time>
      </trkpt>
      <trkpt lat="49.19139" lon="6.67861">
        <ele>213.5</ele>
        <time>2018-12-06T13:23:39Z</time>
      </trkpt>
      <trkpt lat="49.19125" lon="6.67856">
        <ele>213.6</ele>
        <time>2018-12-06T13:23:50Z</time>
      </trkpt>
      <trkpt lat="49.19112" lon="6.67852">
        <ele>213.6</ele>
        <time>2018-12-06T13:24:02Z</time>
      </trkpt>
      <trkpt lat="49.19099" lon="6.67845">
        <ele>213.7</ele>
        <time>2018-12-06T13:24:13Z</time>
      </trkpt>
      <trkpt lat="49.19085" lon="6.67837">
        <ele>213.7</ele>
        <time>2018-12-06T13:24:22Z</time>
      </trkpt>
      <trkpt lat="49.19073" lon="6.6783">
        <ele>213.7</ele>
        <time>2018-12-06T13:24:31Z</time>
      </trkpt>
      <trkpt lat="49.19059" lon="6.67821">
        <ele>213.8</ele>
        <time>2018-12-06T13:24:41Z</time>
      </trkpt>
      <trkpt lat="49.19045" lon="6.67815">
        <ele>213.8</ele>
        <time>2018-12-06T13:24:52Z</time>
      </trkpt>
      <trkpt lat="49.1903" lon="6.67809">
        <ele>213.9</ele>
        <time>2018-12-06T13:25:04Z</time>
      </trkpt>
      <trkpt lat="49.19017" lon="6.67805">
        <ele>213.9</ele>
        <time>2018-12-06T13:25:15Z</time>
      </trkpt>
      <trkpt lat="49.19002" lon="6.67802">
        <ele>214</ele>
        <time>2018-12-06T13:25:28Z</time>
      </trkpt>
      <trkpt lat="49.18988" lon="6.67798">
        <ele>214</ele>
        <time>2018-12-06T13:25:40Z</time>
      </trkpt>
      <trkpt lat="49.18973" lon="6.67794">
        <ele>214.1</ele>
        <time>2018-12-06T13:25:52Z</time>
      </trkpt>
      <trkpt lat="49.18958" lon="6.6779">
        <ele>214.1</ele>
        <time>2018-12-06T13:26:05Z</time>
      </trkpt>
      <trkpt lat="49.18945" lon="6.67785">
        <ele>214.2</ele>
        <time>2018-12-06T13:26:16Z</time>
      </trkpt>
      <trkpt lat="49.18931" lon="6.67778">
        <ele>214.2</ele>
        <time>2018-12-06T13:26:27Z</time>
      </trkpt>
      <trkpt lat="49.18918" lon="6.67773">
        <ele>214.3</ele>
        <time>2018-12-06T13:26:37Z</time>
      </trkpt>
      <trkpt lat="49.18903" lon="6.6777">
        <ele>214.3</ele>
        <time>2018-12-06T13:26:48Z</time>
      </trkpt>
      <trkpt lat="49.18891" lon="6.67776">
        <ele>214.4</ele>
        <time>2018-12-06T13:26:59Z</time>
      </trkpt>
      <trkpt lat="49.1888" lon="6.67789">
        <ele>214.4</ele>
        <time>2018-12-06T13:27:11Z</time>
      </trkpt>
      <trkpt lat="49.18869" lon="6.67803">
        <ele>214.5</ele>
        <time>2018-12-06T13:27:24Z</time>
      </trkpt>
      <trkpt lat="49.1886" lon="6.67818">
        <ele>214.5</ele>
        <time>2018-12-06T13:27:36Z</time>
      </trkpt>
      <trkpt lat="49.18852" lon="6.67834">
        <ele>214.6</ele>
        <time>2018-12-06T13:27:47Z</time>
      </trkpt>
      <trkpt lat="49.18844" lon="6.67852">
        <ele>214.6</ele>
        <time>2018-12-06T13:28:01Z</time>
      </trkpt>
      <trkpt lat="49.18835" lon="6.67869">
        <ele>214.7</ele>
        <time>2018-12-06T13:28:15Z</time>
      </trkpt>
      <trkpt lat="49.18826" lon="6.67884">
        <ele>214.8</ele>
        <time>2018-12-06T13:28:27Z</time>
      </trkpt>
      <trkpt lat="49.18814" lon="6.67894">
        <ele>214.8</ele>
        <time>2018-12-06T13:28:38Z</time>
      </trkpt>
      <trkpt lat="49.18801" lon="6.67905">
        <ele>214.9</ele>
        <time>2018-12-06T13:28:49Z</time>
      </trkpt>
      <trkpt lat="49.18789" lon="6.67916">
        <ele>214.9</ele>
        <time>2018-12-06T13:28:58Z</time>
      </trkpt>
      <trkpt lat="49.18777" lon="6.67927">
        <ele>214.9</ele>
        <time>2018-12-06T13:29:09Z</time>
      </trkpt>
      <trkpt lat="49.18765" lon="6.6794">
        <ele>215</ele>
        <time>2018-12-06T13:29:21Z</time>
      </trkpt>
      <trkpt lat="49.18756" lon="6.67957">
        <ele>215</ele>
        <time>2018-12-06T13:29:32Z</time>
      </trkpt>
      <trkpt lat="49.18748" lon="6.67975">
        <ele>215.1</ele>
        <time>2018-12-06T13:29:43Z</time>
      </trkpt>
      <trkpt lat="49.18738" lon="6.67993">
        <ele>215.1</ele>
        <time>2018-12-06T13:29:55Z</time>
      </trkpt>
      <trkpt lat="49.18727" lon="6.68008">
        <ele>215.2</ele>
        <time>2018-12-06T13:30:05Z</time>
      </trkpt>
      <trkpt lat="49.18716" lon="6.68021">
        <ele>215.2</ele>
        <time>2018-12-06T13:30:15Z</time>
      </trkpt>
      <trkpt lat="49.18705" lon="6.68031">
        <ele>215.3</ele>
        <time>2018-12-06T13:30:25Z</time>
      </trkpt>
      <trkpt lat="49.18691" lon="6.68039">
        <ele>215.3</ele>
        <time>2018-12-06T13:30:35Z</time>
      </trkpt>
      <trkpt lat="49.18659" lon="6.68032">
        <ele>215.8</ele>
        <time>2018-12-06T13:30:52Z</time>
      </trkpt>
      <trkpt lat="49.18659" lon="6.68032">
        <ele>215.8</ele>
        <time>2018-12-06T13:34:29Z</time>
      </trkpt>
      <trkpt lat="49.1864" lon="6.68018">
        <ele>216.3</ele>
        <time>2018-12-06T13:34:33Z</time>
      </trkpt>
      <trkpt lat="49.1863" lon="6.68004">
        <ele>216.4</ele>
        <time>2018-12-06T13:34:46Z</time>
      </trkpt>
      <trkpt lat="49.18629" lon="6.68003">
        <ele>216.5</ele>
        <time>2018-12-06T13:34:47Z</time>
      </trkpt>
      <trkpt lat="49.18621" lon="6.67986">
        <ele>217.7</ele>
        <time>2018-12-06T13:35:01Z</time>
      </trkpt>
      <trkpt lat="49.18615" lon="6.67966">
        <ele>218.9</ele>
        <time>2018-12-06T13:35:15Z</time>
      </trkpt>
      <trkpt lat="49.1861" lon="6.67955">
        <ele>219.6</ele>
        <time>2018-12-06T13:35:22Z</time>
      </trkpt>
      <trkpt lat="49.18608" lon="6.67949">
        <ele>219.7</ele>
        <time>2018-12-06T13:35:26Z</time>
      </trkpt>
      <trkpt lat="49.18599" lon="6.67931">
        <ele>220.1</ele>
        <time>2018-12-06T13:35:40Z</time>
      </trkpt>
      <trkpt lat="49.1859" lon="6.67914">
        <ele>220.5</ele>
        <time>2018-12-06T13:35:56Z</time>
      </trkpt>
      <trkpt lat="49.18582" lon="6.67896">
        <ele>220.9</ele>
        <time>2018-12-06T13:36:09Z</time>
      </trkpt>
      <trkpt lat="49.18573" lon="6.67881">
        <ele>221.2</ele>
        <time>2018-12-06T13:36:18Z</time>
      </trkpt>
      <trkpt lat="49.18565" lon="6.67862">
        <ele>221.5</ele>
        <time>2018-12-06T13:36:29Z</time>
      </trkpt>
      <trkpt lat="49.18555" lon="6.67846">
        <ele>221.7</ele>
        <time>2018-12-06T13:36:39Z</time>
      </trkpt>
      <trkpt lat="49.18546" lon="6.67844">
        <ele>221.9</ele>
        <time>2018-12-06T13:36:46Z</time>
      </trkpt>
      <trkpt lat="49.18544" lon="6.67843">
        <ele>222</ele>
        <time>2018-12-06T13:36:48Z</time>
      </trkpt>
      <trkpt lat="49.18529" lon="6.67849">
        <ele>222.3</ele>
        <time>2018-12-06T13:37:00Z</time>
      </trkpt>
      <trkpt lat="49.1852" lon="6.67844">
        <ele>222.6</ele>
        <time>2018-12-06T13:37:10Z</time>
      </trkpt>
      <trkpt lat="49.18512" lon="6.6783">
        <ele>222.9</ele>
        <time>2018-12-06T13:37:21Z</time>
      </trkpt>
      <trkpt lat="49.18503" lon="6.67813">
        <ele>223.2</ele>
        <time>2018-12-06T13:37:33Z</time>
      </trkpt>
      <trkpt lat="49.18498" lon="6.67795">
        <ele>223.5</ele>
        <time>2018-12-06T13:37:44Z</time>
      </trkpt>
      <trkpt lat="49.18497" lon="6.67774">
        <ele>223.9</ele>
        <time>2018-12-06T13:37:58Z</time>
      </trkpt>
      <trkpt lat="49.18501" lon="6.67753">
        <ele>224.3</ele>
        <time>2018-12-06T13:38:11Z</time>
      </trkpt>
      <trkpt lat="49.18508" lon="6.67735">
        <ele>224.5</ele>
        <time>2018-12-06T13:38:21Z</time>
      </trkpt>
      <trkpt lat="49.18515" lon="6.67715">
        <ele>224.9</ele>
        <time>2018-12-06T13:38:33Z</time>
      </trkpt>
      <trkpt lat="49.18515" lon="6.67695">
        <ele>225.2</ele>
        <time>2018-12-06T13:38:45Z</time>
      </trkpt>
      <trkpt lat="49.1851" lon="6.67677">
        <ele>225.5</ele>
        <time>2018-12-06T13:38:58Z</time>
      </trkpt>
      <trkpt lat="49.18506" lon="6.6767">
        <ele>225.7</ele>
        <time>2018-12-06T13:39:04Z</time>
      </trkpt>
      <trkpt lat="49.18501" lon="6.67659">
        <ele>226.5</ele>
        <time>2018-12-06T13:39:13Z</time>
      </trkpt>
      <trkpt lat="49.18491" lon="6.67646">
        <ele>227.7</ele>
        <time>2018-12-06T13:39:26Z</time>
      </trkpt>
      <trkpt lat="49.18478" lon="6.67634">
        <ele>228.8</ele>
        <time>2018-12-06T13:39:38Z</time>
      </trkpt>
      <trkpt lat="49.18476" lon="6.67632">
        <ele>229</ele>
        <time>2018-12-06T13:39:40Z</time>
      </trkpt>
      <trkpt lat="49.18466" lon="6.67622">
        <ele>229.7</ele>
        <time>2018-12-06T13:39:50Z</time>
      </trkpt>
      <trkpt lat="49.18453" lon="6.67609">
        <ele>230.5</ele>
        <time>2018-12-06T13:40:03Z</time>
      </trkpt>
      <trkpt lat="49.18441" lon="6.67598">
        <ele>231.2</ele>
        <time>2018-12-06T13:40:14Z</time>
      </trkpt>
      <trkpt lat="49.1843" lon="6.67586">
        <ele>231.9</ele>
        <time>2018-12-06T13:40:24Z</time>
      </trkpt>
      <trkpt lat="49.18426" lon="6.67581">
        <ele>232.1</ele>
        <time>2018-12-06T13:40:28Z</time>
      </trkpt>
      <trkpt lat="49.18419" lon="6.67573">
        <ele>232</ele>
        <time>2018-12-06T13:40:35Z</time>
      </trkpt>
      <trkpt lat="49.18407" lon="6.67561">
        <ele>231.8</ele>
        <time>2018-12-06T13:40:47Z</time>
      </trkpt>
      <trkpt lat="49.18395" lon="6.6755">
        <ele>231.6</ele>
        <time>2018-12-06T13:40:59Z</time>
      </trkpt>
      <trkpt lat="49.18384" lon="6.67537">
        <ele>231.4</ele>
        <time>2018-12-06T13:41:10Z</time>
      </trkpt>
      <trkpt lat="49.18374" lon="6.67522">
        <ele>231.3</ele>
        <time>2018-12-06T13:41:21Z</time>
      </trkpt>
      <trkpt lat="49.18363" lon="6.6751">
        <ele>231.1</ele>
        <time>2018-12-06T13:41:31Z</time>
      </trkpt>
      <trkpt lat="49.18352" lon="6.67496">
        <ele>230.9</ele>
        <time>2018-12-06T13:41:42Z</time>
      </trkpt>
      <trkpt lat="49.18342" lon="6.67479">
        <ele>230.7</ele>
        <time>2018-12-06T13:41:53Z</time>
      </trkpt>
      <trkpt lat="49.18332" lon="6.67464">
        <ele>230.6</ele>
        <time>2018-12-06T13:42:04Z</time>
      </trkpt>
      <trkpt lat="49.18321" lon="6.67452">
        <ele>230.4</ele>
        <time>2018-12-06T13:42:14Z</time>
      </trkpt>
      <trkpt lat="49.18309" lon="6.67438">
        <ele>230.2</ele>
        <time>2018-12-06T13:42:26Z</time>
      </trkpt>
      <trkpt lat="49.18299" lon="6.67424">
        <ele>230</ele>
        <time>2018-12-06T13:42:37Z</time>
      </trkpt>
      <trkpt lat="49.18289" lon="6.6741">
        <ele>229.9</ele>
        <time>2018-12-06T13:42:47Z</time>
      </trkpt>
      <trkpt lat="49.18278" lon="6.67398">
        <ele>229.7</ele>
        <time>2018-12-06T13:42:58Z</time>
      </trkpt>
      <trkpt lat="49.18267" lon="6.67384">
        <ele>229.5</ele>
        <time>2018-12-06T13:43:11Z</time>
      </trkpt>
      <trkpt lat="49.18256" lon="6.67368">
        <ele>229.2</ele>
        <time>2018-12-06T13:43:25Z</time>
      </trkpt>
      <trkpt lat="49.18245" lon="6.67354">
        <ele>229</ele>
        <time>2018-12-06T13:43:37Z</time>
      </trkpt>
      <trkpt lat="49.18234" lon="6.67342">
        <ele>228.9</ele>
        <time>2018-12-06T13:43:48Z</time>
      </trkpt>
      <trkpt lat="49.18222" lon="6.67328">
        <ele>228.7</ele>
        <time>2018-12-06T13:44:00Z</time>
      </trkpt>
      <trkpt lat="49.18215" lon="6.6732">
        <ele>228.5</ele>
        <time>2018-12-06T13:44:07Z</time>
      </trkpt>
      <trkpt lat="49.18211" lon="6.67315">
        <ele>228.5</ele>
        <time>2018-12-06T13:44:11Z</time>
      </trkpt>
      <trkpt lat="49.182" lon="6.67301">
        <ele>228.4</ele>
        <time>2018-12-06T13:44:22Z</time>
      </trkpt>
      <trkpt lat="49.18188" lon="6.67289">
        <ele>228.2</ele>
        <time>2018-12-06T13:44:32Z</time>
      </trkpt>
      <trkpt lat="49.18161" lon="6.67259">
        <ele>227.7</ele>
        <time>2018-12-06T13:44:54Z</time>
      </trkpt>
      <trkpt lat="49.18161" lon="6.67259">
        <ele>227.7</ele>
        <time>2018-12-06T13:45:40Z</time>
      </trkpt>
      <trkpt lat="49.18146" lon="6.67243">
        <ele>227.3</ele>
        <time>2018-12-06T13:45:45Z</time>
      </trkpt>
      <trkpt lat="49.18136" lon="6.67227">
        <ele>227.1</ele>
        <time>2018-12-06T13:45:58Z</time>
      </trkpt>
      <trkpt lat="49.18125" lon="6.67214">
        <ele>227</ele>
        <time>2018-12-06T13:46:09Z</time>
      </trkpt>
      <trkpt lat="49.18114" lon="6.67201">
        <ele>226.9</ele>
        <time>2018-12-06T13:46:19Z</time>
      </trkpt>
      <trkpt lat="49.18102" lon="6.67187">
        <ele>226.7</ele>
        <time>2018-12-06T13:46:30Z</time>
      </trkpt>
      <trkpt lat="49.18092" lon="6.67174">
        <ele>226.6</ele>
        <time>2018-12-06T13:46:42Z</time>
      </trkpt>
      <trkpt lat="49.18081" lon="6.67161">
        <ele>226.4</ele>
        <time>2018-12-06T13:46:54Z</time>
      </trkpt>
      <trkpt lat="49.18069" lon="6.67148">
        <ele>226.3</ele>
        <time>2018-12-06T13:47:05Z</time>
      </trkpt>
      <trkpt lat="49.18059" lon="6.67134">
        <ele>226.1</ele>
        <time>2018-12-06T13:47:16Z</time>
      </trkpt>
      <trkpt lat="49.18055" lon="6.67115">
        <ele>225.9</ele>
        <time>2018-12-06T13:47:31Z</time>
      </trkpt>
      <trkpt lat="49.18061" lon="6.67097">
        <ele>225.7</ele>
        <time>2018-12-06T13:47:46Z</time>
      </trkpt>
      <trkpt lat="49.1807" lon="6.6708">
        <ele>225.6</ele>
        <time>2018-12-06T13:47:58Z</time>
      </trkpt>
      <trkpt lat="49.18078" lon="6.67062">
        <ele>225.4</ele>
        <time>2018-12-06T13:48:10Z</time>
      </trkpt>
      <trkpt lat="49.18088" lon="6.67048">
        <ele>225.3</ele>
        <time>2018-12-06T13:48:20Z</time>
      </trkpt>
      <trkpt lat="49.18092" lon="6.67043">
        <ele>225.3</ele>
        <time>2018-12-06T13:48:24Z</time>
      </trkpt>
      <trkpt lat="49.18099" lon="6.67034">
        <ele>225</ele>
        <time>2018-12-06T13:48:31Z</time>
      </trkpt>
      <trkpt lat="49.18109" lon="6.67019">
        <ele>224.5</ele>
        <time>2018-12-06T13:48:43Z</time>
      </trkpt>
      <trkpt lat="49.1811" lon="6.67">
        <ele>223.9</ele>
        <time>2018-12-06T13:48:58Z</time>
      </trkpt>
      <trkpt lat="49.18103" lon="6.66982">
        <ele>223.5</ele>
        <time>2018-12-06T13:49:10Z</time>
      </trkpt>
      <trkpt lat="49.18097" lon="6.66962">
        <ele>223</ele>
        <time>2018-12-06T13:49:21Z</time>
      </trkpt>
      <trkpt lat="49.18094" lon="6.66942">
        <ele>222.6</ele>
        <time>2018-12-06T13:49:32Z</time>
      </trkpt>
      <trkpt lat="49.1809" lon="6.66922">
        <ele>222.2</ele>
        <time>2018-12-06T13:49:42Z</time>
      </trkpt>
      <trkpt lat="49.18083" lon="6.66904">
        <ele>221.8</ele>
        <time>2018-12-06T13:49:53Z</time>
      </trkpt>
      <trkpt lat="49.18083" lon="6.66902">
        <ele>221.7</ele>
        <time>2018-12-06T13:49:54Z</time>
      </trkpt>
      <trkpt lat="49.18074" lon="6.66888">
        <ele>221.8</ele>
        <time>2018-12-06T13:50:04Z</time>
      </trkpt>
      <trkpt lat="49.18063" lon="6.66873">
        <ele>221.8</ele>
        <time>2018-12-06T13:50:15Z</time>
      </trkpt>
      <trkpt lat="49.18052" lon="6.66857">
        <ele>221.9</ele>
        <time>2018-12-06T13:50:27Z</time>
      </trkpt>
      <trkpt lat="49.18041" lon="6.66844">
        <ele>222</ele>
        <time>2018-12-06T13:50:38Z</time>
      </trkpt>
      <trkpt lat="49.18028" lon="6.66831">
        <ele>222</ele>
        <time>2018-12-06T13:50:51Z</time>
      </trkpt>
      <trkpt lat="49.18016" lon="6.6682">
        <ele>222.1</ele>
        <time>2018-12-06T13:51:03Z</time>
      </trkpt>
      <trkpt lat="49.18005" lon="6.66808">
        <ele>222.2</ele>
        <time>2018-12-06T13:51:13Z</time>
      </trkpt>
      <trkpt lat="49.17994" lon="6.66796">
        <ele>222.2</ele>
        <time>2018-12-06T13:51:25Z</time>
      </trkpt>
      <trkpt lat="49.17982" lon="6.66782">
        <ele>222.3</ele>
        <time>2018-12-06T13:51:37Z</time>
      </trkpt>
      <trkpt lat="49.17971" lon="6.66767">
        <ele>222.4</ele>
        <time>2018-12-06T13:51:50Z</time>
      </trkpt>
      <trkpt lat="49.17961" lon="6.66754">
        <ele>222.4</ele>
        <time>2018-12-06T13:52:04Z</time>
      </trkpt>
      <trkpt lat="49.17949" lon="6.66742">
        <ele>222.5</ele>
        <time>2018-12-06T13:52:18Z</time>
      </trkpt>
      <trkpt lat="49.17938" lon="6.66729">
        <ele>222.6</ele>
        <time>2018-12-06T13:52:31Z</time>
      </trkpt>
      <trkpt lat="49.17929" lon="6.66714">
        <ele>222.7</ele>
        <time>2018-12-06T13:52:44Z</time>
      </trkpt>
      <trkpt lat="49.17926" lon="6.6671">
        <ele>222.7</ele>
        <time>2018-12-06T13:52:47Z</time>
      </trkpt>
      <trkpt lat="49.17918" lon="6.667">
        <ele>222.7</ele>
        <time>2018-12-06T13:52:57Z</time>
      </trkpt>
      <trkpt lat="49.17908" lon="6.66685">
        <ele>222.8</ele>
        <time>2018-12-06T13:53:12Z</time>
      </trkpt>
      <trkpt lat="49.17896" lon="6.66669">
        <ele>222.9</ele>
        <time>2018-12-06T13:53:27Z</time>
      </trkpt>
      <trkpt lat="49.17885" lon="6.66656">
        <ele>223</ele>
        <time>2018-12-06T13:53:40Z</time>
      </trkpt>
      <trkpt lat="49.17874" lon="6.66644">
        <ele>223</ele>
        <time>2018-12-06T13:53:53Z</time>
      </trkpt>
      <trkpt lat="49.17847" lon="6.66632">
        <ele>223.8</ele>
        <time>2018-12-06T13:54:19Z</time>
      </trkpt>
      <trkpt lat="49.17847" lon="6.66632">
        <ele>223.8</ele>
        <time>2018-12-06T13:58:00Z</time>
      </trkpt>
      <trkpt lat="49.17833" lon="6.66631">
        <ele>224.4</ele>
        <time>2018-12-06T13:58:01Z</time>
      </trkpt>
      <trkpt lat="49.17823" lon="6.66647">
        <ele>224.5</ele>
        <time>2018-12-06T13:58:13Z</time>
      </trkpt>
      <trkpt lat="49.17814" lon="6.66665">
        <ele>224.5</ele>
        <time>2018-12-06T13:58:24Z</time>
      </trkpt>
      <trkpt lat="49.17804" lon="6.6668">
        <ele>224.6</ele>
        <time>2018-12-06T13:58:35Z</time>
      </trkpt>
      <trkpt lat="49.17794" lon="6.66695">
        <ele>224.7</ele>
        <time>2018-12-06T13:58:47Z</time>
      </trkpt>
      <trkpt lat="49.17786" lon="6.66709">
        <ele>224.7</ele>
        <time>2018-12-06T13:58:58Z</time>
      </trkpt>
      <trkpt lat="49.17777" lon="6.66726">
        <ele>224.8</ele>
        <time>2018-12-06T13:59:09Z</time>
      </trkpt>
      <trkpt lat="49.17768" lon="6.66742">
        <ele>224.8</ele>
        <time>2018-12-06T13:59:21Z</time>
      </trkpt>
      <trkpt lat="49.17758" lon="6.66759">
        <ele>224.9</ele>
        <time>2018-12-06T13:59:33Z</time>
      </trkpt>
      <trkpt lat="49.17747" lon="6.66775">
        <ele>225</ele>
        <time>2018-12-06T13:59:45Z</time>
      </trkpt>
      <trkpt lat="49.17738" lon="6.66792">
        <ele>225</ele>
        <time>2018-12-06T13:59:56Z</time>
      </trkpt>
      <trkpt lat="49.1773" lon="6.66809">
        <ele>225.1</ele>
        <time>2018-12-06T14:00:07Z</time>
      </trkpt>
      <trkpt lat="49.17722" lon="6.66823">
        <ele>225.2</ele>
        <time>2018-12-06T14:00:17Z</time>
      </trkpt>
      <trkpt lat="49.17721" lon="6.66825">
        <ele>225.2</ele>
        <time>2018-12-06T14:00:18Z</time>
      </trkpt>
      <trkpt lat="49.17712" lon="6.66841">
        <ele>225.7</ele>
        <time>2018-12-06T14:00:30Z</time>
      </trkpt>
      <trkpt lat="49.17702" lon="6.66857">
        <ele>226.1</ele>
        <time>2018-12-06T14:00:42Z</time>
      </trkpt>
      <trkpt lat="49.17693" lon="6.66874">
        <ele>226.6</ele>
        <time>2018-12-06T14:00:54Z</time>
      </trkpt>
      <trkpt lat="49.17684" lon="6.66889">
        <ele>227</ele>
        <time>2018-12-06T14:01:05Z</time>
      </trkpt>
      <trkpt lat="49.17675" lon="6.66904">
        <ele>227.5</ele>
        <time>2018-12-06T14:01:17Z</time>
      </trkpt>
      <trkpt lat="49.17665" lon="6.6692">
        <ele>228</ele>
        <time>2018-12-06T14:01:29Z</time>
      </trkpt>
      <trkpt lat="49.17654" lon="6.66934">
        <ele>228.4</ele>
        <time>2018-12-06T14:01:40Z</time>
      </trkpt>
      <trkpt lat="49.17644" lon="6.66948">
        <ele>228.7</ele>
        <time>2018-12-06T14:01:50Z</time>
      </trkpt>
      <trkpt lat="49.17634" lon="6.66962">
        <ele>229.1</ele>
        <time>2018-12-06T14:02:01Z</time>
      </trkpt>
      <trkpt lat="49.17625" lon="6.66979">
        <ele>229.4</ele>
        <time>2018-12-06T14:02:12Z</time>
      </trkpt>
      <trkpt lat="49.17619" lon="6.66999">
        <ele>229.7</ele>
        <time>2018-12-06T14:02:23Z</time>
      </trkpt>
      <trkpt lat="49.17612" lon="6.67017">
        <ele>230</ele>
        <time>2018-12-06T14:02:34Z</time>
      </trkpt>
      <trkpt lat="49.17604" lon="6.67033">
        <ele>230.4</ele>
        <time>2018-12-06T14:02:45Z</time>
      </trkpt>
      <trkpt lat="49.17595" lon="6.67052">
        <ele>230.7</ele>
        <time>2018-12-06T14:02:57Z</time>
      </trkpt>
      <trkpt lat="49.17587" lon="6.67069">
        <ele>231</ele>
        <time>2018-12-06T14:03:08Z</time>
      </trkpt>
      <trkpt lat="49.17565" lon="6.67109">
        <ele>232.1</ele>
        <time>2018-12-06T14:03:22Z</time>
      </trkpt>
      <trkpt lat="49.17565" lon="6.67109">
        <ele>232.1</ele>
        <time>2018-12-06T14:04:07Z</time>
      </trkpt>
      <trkpt lat="49.17553" lon="6.67134">
        <ele>232.8</ele>
        <time>2018-12-06T14:04:17Z</time>
      </trkpt>
      <trkpt lat="49.17545" lon="6.67152">
        <ele>233.1</ele>
        <time>2018-12-06T14:04:28Z</time>
      </trkpt>
      <trkpt lat="49.17538" lon="6.67169">
        <ele>233.3</ele>
        <time>2018-12-06T14:04:38Z</time>
      </trkpt>
      <trkpt lat="49.17528" lon="6.67186">
        <ele>233.5</ele>
        <time>2018-12-06T14:04:49Z</time>
      </trkpt>
      <trkpt lat="49.1752" lon="6.67203">
        <ele>233.8</ele>
        <time>2018-12-06T14:05:01Z</time>
      </trkpt>
      <trkpt lat="49.17513" lon="6.67223">
        <ele>234.1</ele>
        <time>2018-12-06T14:05:12Z</time>
      </trkpt>
      <trkpt lat="49.17505" lon="6.67242">
        <ele>234.4</ele>
        <time>2018-12-06T14:05:24Z</time>
      </trkpt>
      <trkpt lat="49.17496" lon="6.67261">
        <ele>234.7</ele>
        <time>2018-12-06T14:05:36Z</time>
      </trkpt>
      <trkpt lat="49.17494" lon="6.67267">
        <ele>234.7</ele>
        <time>2018-12-06T14:05:40Z</time>
      </trkpt>
      <trkpt lat="49.1749" lon="6.67279">
        <ele>235</ele>
        <time>2018-12-06T14:05:47Z</time>
      </trkpt>
      <trkpt lat="49.17482" lon="6.67296">
        <ele>235.5</ele>
        <time>2018-12-06T14:05:58Z</time>
      </trkpt>
      <trkpt lat="49.17473" lon="6.67314">
        <ele>235.9</ele>
        <time>2018-12-06T14:06:10Z</time>
      </trkpt>
      <trkpt lat="49.17465" lon="6.67332">
        <ele>236.4</ele>
        <time>2018-12-06T14:06:22Z</time>
      </trkpt>
      <trkpt lat="49.17458" lon="6.67352">
        <ele>236.9</ele>
        <time>2018-12-06T14:06:34Z</time>
      </trkpt>
      <trkpt lat="49.17451" lon="6.67371">
        <ele>237.4</ele>
        <time>2018-12-06T14:06:47Z</time>
      </trkpt>
      <trkpt lat="49.17449" lon="6.67388">
        <ele>237.9</ele>
        <time>2018-12-06T14:06:58Z</time>
      </trkpt>
      <trkpt lat="49.17448" lon="6.67393">
        <ele>237.7</ele>
        <time>2018-12-06T14:07:01Z</time>
      </trkpt>
      <trkpt lat="49.17446" lon="6.67414">
        <ele>237.1</ele>
        <time>2018-12-06T14:07:14Z</time>
      </trkpt>
      <trkpt lat="49.17443" lon="6.67434">
        <ele>236.4</ele>
        <time>2018-12-06T14:07:26Z</time>
      </trkpt>
      <trkpt lat="49.17438" lon="6.67453">
        <ele>235.8</ele>
        <time>2018-12-06T14:07:38Z</time>
      </trkpt>
      <trkpt lat="49.17434" lon="6.67475">
        <ele>235.2</ele>
        <time>2018-12-06T14:07:50Z</time>
      </trkpt>
      <trkpt lat="49.17432" lon="6.67496">
        <ele>234.6</ele>
        <time>2018-12-06T14:08:01Z</time>
      </trkpt>
      <trkpt lat="49.17431" lon="6.67501">
        <ele>234.5</ele>
        <time>2018-12-06T14:08:04Z</time>
      </trkpt>
      <trkpt lat="49.17429" lon="6.67517">
        <ele>233.6</ele>
        <time>2018-12-06T14:08:14Z</time>
      </trkpt>
      <trkpt lat="49.17425" lon="6.67538">
        <ele>232.4</ele>
        <time>2018-12-06T14:08:28Z</time>
      </trkpt>
      <trkpt lat="49.17422" lon="6.67555">
        <ele>231.5</ele>
        <time>2018-12-06T14:08:39Z</time>
      </trkpt>
      <trkpt lat="49.17421" lon="6.67558">
        <ele>231.3</ele>
        <time>2018-12-06T14:08:41Z</time>
      </trkpt>
      <trkpt lat="49.1742" lon="6.67568">
        <ele>230.9</ele>
        <time>2018-12-06T14:08:47Z</time>
      </trkpt>
      <trkpt lat="49.17418" lon="6.6758">
        <ele>230.3</ele>
        <time>2018-12-06T14:08:54Z</time>
      </trkpt>
      <trkpt lat="49.17416" lon="6.676">
        <ele>229.4</ele>
        <time>2018-12-06T14:09:06Z</time>
      </trkpt>
      <trkpt lat="49.17414" lon="6.6762">
        <ele>228.6</ele>
        <time>2018-12-06T14:09:17Z</time>
      </trkpt>
      <trkpt lat="49.17414" lon="6.67627">
        <ele>228.3</ele>
        <time>2018-12-06T14:09:21Z</time>
      </trkpt>
      <trkpt lat="49.17413" lon="6.67643">
        <ele>227.5</ele>
        <time>2018-12-06T14:09:30Z</time>
      </trkpt>
      <trkpt lat="49.17413" lon="6.67667">
        <ele>226.2</ele>
        <time>2018-12-06T14:09:44Z</time>
      </trkpt>
      <trkpt lat="49.17412" lon="6.67683">
        <ele>224.9</ele>
        <time>2018-12-06T14:09:57Z</time>
      </trkpt>
      <trkpt lat="49.17412" lon="6.67688">
        <ele>224.7</ele>
        <time>2018-12-06T14:10:01Z</time>
      </trkpt>
      <trkpt lat="49.1741" lon="6.67709">
        <ele>223.7</ele>
        <time>2018-12-06T14:10:18Z</time>
      </trkpt>
      <trkpt lat="49.17408" lon="6.6773">
        <ele>223</ele>
        <time>2018-12-06T14:10:30Z</time>
      </trkpt>
      <trkpt lat="49.17406" lon="6.67751">
        <ele>222.3</ele>
        <time>2018-12-06T14:10:43Z</time>
      </trkpt>
      <trkpt lat="49.17403" lon="6.67773">
        <ele>221.5</ele>
        <time>2018-12-06T14:10:57Z</time>
      </trkpt>
      <trkpt lat="49.174" lon="6.67794">
        <ele>220</ele>
        <time>2018-12-06T14:11:10Z</time>
      </trkpt>
      <trkpt lat="49.17398" lon="6.67815">
        <ele>218.4</ele>
        <time>2018-12-06T14:11:24Z</time>
      </trkpt>
      <trkpt lat="49.17397" lon="6.6782">
        <ele>218</ele>
        <time>2018-12-06T14:11:27Z</time>
      </trkpt>
      <trkpt lat="49.17395" lon="6.67834">
        <ele>218</ele>
        <time>2018-12-06T14:11:36Z</time>
      </trkpt>
      <trkpt lat="49.17399" lon="6.67845">
        <ele>218.1</ele>
        <time>2018-12-06T14:11:46Z</time>
      </trkpt>
      <trkpt lat="49.17415" lon="6.6785">
        <ele>219.2</ele>
        <time>2018-12-06T14:12:05Z</time>
      </trkpt>
      <trkpt lat="49.17415" lon="6.6785">
        <ele>219.2</ele>
        <time>2018-12-06T14:19:45Z</time>
      </trkpt>
      <trkpt lat="49.17426" lon="6.67853">
        <ele>220.3</ele>
        <time>2018-12-06T14:19:55Z</time>
      </trkpt>
      <trkpt lat="49.17441" lon="6.67856">
        <ele>220.3</ele>
        <time>2018-12-06T14:20:07Z</time>
      </trkpt>
      <trkpt lat="49.17455" lon="6.6786">
        <ele>220.4</ele>
        <time>2018-12-06T14:20:18Z</time>
      </trkpt>
      <trkpt lat="49.17469" lon="6.67865">
        <ele>220.4</ele>
        <time>2018-12-06T14:20:29Z</time>
      </trkpt>
      <trkpt lat="49.17482" lon="6.67866">
        <ele>220.5</ele>
        <time>2018-12-06T14:20:39Z</time>
      </trkpt>
      <trkpt lat="49.17496" lon="6.67862">
        <ele>220.5</ele>
        <time>2018-12-06T14:20:50Z</time>
      </trkpt>
      <trkpt lat="49.1751" lon="6.67857">
        <ele>220.6</ele>
        <time>2018-12-06T14:21:01Z</time>
      </trkpt>
      <trkpt lat="49.17525" lon="6.67854">
        <ele>220.6</ele>
        <time>2018-12-06T14:21:13Z</time>
      </trkpt>
      <trkpt lat="49.17539" lon="6.67853">
        <ele>220.7</ele>
        <time>2018-12-06T14:21:24Z</time>
      </trkpt>
      <trkpt lat="49.17552" lon="6.67853">
        <ele>220.7</ele>
        <time>2018-12-06T14:21:34Z</time>
      </trkpt>
      <trkpt lat="49.17567" lon="6.67854">
        <ele>220.8</ele>
        <time>2018-12-06T14:21:47Z</time>
      </trkpt>
      <trkpt lat="49.1758" lon="6.67855">
        <ele>220.8</ele>
        <time>2018-12-06T14:21:59Z</time>
      </trkpt>
      <trkpt lat="49.17594" lon="6.67852">
        <ele>220.9</ele>
        <time>2018-12-06T14:22:10Z</time>
      </trkpt>
      <trkpt lat="49.17608" lon="6.67847">
        <ele>220.9</ele>
        <time>2018-12-06T14:22:21Z</time>
      </trkpt>
      <trkpt lat="49.17621" lon="6.6784">
        <ele>221</ele>
        <time>2018-12-06T14:22:32Z</time>
      </trkpt>
      <trkpt lat="49.17633" lon="6.67832">
        <ele>221</ele>
        <time>2018-12-06T14:22:44Z</time>
      </trkpt>
      <trkpt lat="49.17646" lon="6.6783">
        <ele>221.1</ele>
        <time>2018-12-06T14:22:56Z</time>
      </trkpt>
      <trkpt lat="49.17661" lon="6.67834">
        <ele>221.1</ele>
        <time>2018-12-06T14:23:06Z</time>
      </trkpt>
      <trkpt lat="49.17673" lon="6.67841">
        <ele>221.2</ele>
        <time>2018-12-06T14:23:16Z</time>
      </trkpt>
      <trkpt lat="49.17684" lon="6.67855">
        <ele>221.2</ele>
        <time>2018-12-06T14:23:27Z</time>
      </trkpt>
      <trkpt lat="49.17692" lon="6.67873">
        <ele>221.3</ele>
        <time>2018-12-06T14:23:40Z</time>
      </trkpt>
      <trkpt lat="49.17693" lon="6.67892">
        <ele>221.3</ele>
        <time>2018-12-06T14:23:53Z</time>
      </trkpt>
      <trkpt lat="49.17687" lon="6.67906">
        <ele>221.4</ele>
        <time>2018-12-06T14:24:04Z</time>
      </trkpt>
      <trkpt lat="49.17685" lon="6.67908">
        <ele>221.4</ele>
        <time>2018-12-06T14:24:06Z</time>
      </trkpt>
      <trkpt lat="49.17681" lon="6.6794">
        <ele>222.2</ele>
        <time>2018-12-06T14:24:23Z</time>
      </trkpt>
      <trkpt lat="49.17681" lon="6.6794">
        <ele>222.2</ele>
        <time>2018-12-06T14:26:48Z</time>
      </trkpt>
      <trkpt lat="49.17685" lon="6.67958">
        <ele>221.6</ele>
        <time>2018-12-06T14:26:57Z</time>
      </trkpt>
      <trkpt lat="49.17698" lon="6.67952">
        <ele>221.3</ele>
        <time>2018-12-06T14:27:11Z</time>
      </trkpt>
      <trkpt lat="49.17712" lon="6.67953">
        <ele>221.1</ele>
        <time>2018-12-06T14:27:23Z</time>
      </trkpt>
      <trkpt lat="49.17713" lon="6.67954">
        <ele>221.1</ele>
        <time>2018-12-06T14:27:24Z</time>
      </trkpt>
      <trkpt lat="49.17726" lon="6.67957">
        <ele>220.4</ele>
        <time>2018-12-06T14:27:34Z</time>
      </trkpt>
      <trkpt lat="49.1774" lon="6.67963">
        <ele>219.7</ele>
        <time>2018-12-06T14:27:45Z</time>
      </trkpt>
      <trkpt lat="49.17753" lon="6.67968">
        <ele>219</ele>
        <time>2018-12-06T14:27:56Z</time>
      </trkpt>
      <trkpt lat="49.17768" lon="6.67969">
        <ele>218.3</ele>
        <time>2018-12-06T14:28:08Z</time>
      </trkpt>
      <trkpt lat="49.17773" lon="6.67968">
        <ele>218</ele>
        <time>2018-12-06T14:28:12Z</time>
      </trkpt>
      <trkpt lat="49.17781" lon="6.67965">
        <ele>217.8</ele>
        <time>2018-12-06T14:28:19Z</time>
      </trkpt>
      <trkpt lat="49.17794" lon="6.67959">
        <ele>217.4</ele>
        <time>2018-12-06T14:28:32Z</time>
      </trkpt>
      <trkpt lat="49.17809" lon="6.67961">
        <ele>216.9</ele>
        <time>2018-12-06T14:28:47Z</time>
      </trkpt>
      <trkpt lat="49.17822" lon="6.67967">
        <ele>216.4</ele>
        <time>2018-12-06T14:29:00Z</time>
      </trkpt>
      <trkpt lat="49.17836" lon="6.67969">
        <ele>216</ele>
        <time>2018-12-06T14:29:12Z</time>
      </trkpt>
      <trkpt lat="49.17851" lon="6.67969">
        <ele>215.7</ele>
        <time>2018-12-06T14:29:24Z</time>
      </trkpt>
      <trkpt lat="49.17865" lon="6.67968">
        <ele>215.3</ele>
        <time>2018-12-06T14:29:35Z</time>
      </trkpt>
      <trkpt lat="49.1788" lon="6.67964">
        <ele>214.9</ele>
        <time>2018-12-06T14:29:47Z</time>
      </trkpt>
      <trkpt lat="49.17894" lon="6.67963">
        <ele>215.6</ele>
        <time>2018-12-06T14:30:00Z</time>
      </trkpt>
      <trkpt lat="49.17909" lon="6.67964">
        <ele>216.4</ele>
        <time>2018-12-06T14:30:14Z</time>
      </trkpt>
      <trkpt lat="49.17924" lon="6.67966">
        <ele>217.1</ele>
        <time>2018-12-06T14:30:27Z</time>
      </trkpt>
      <trkpt lat="49.17938" lon="6.67973">
        <ele>217.7</ele>
        <time>2018-12-06T14:30:38Z</time>
      </trkpt>
      <trkpt lat="49.17947" lon="6.67978">
        <ele>218.1</ele>
        <time>2018-12-06T14:30:46Z</time>
      </trkpt>
      <trkpt lat="49.17952" lon="6.67981">
        <ele>218.4</ele>
        <time>2018-12-06T14:30:50Z</time>
      </trkpt>
      <trkpt lat="49.17964" lon="6.6799">
        <ele>219.5</ele>
        <time>2018-12-06T14:31:03Z</time>
      </trkpt>
      <trkpt lat="49.17977" lon="6.67999">
        <ele>220.5</ele>
        <time>2018-12-06T14:31:15Z</time>
      </trkpt>
      <trkpt lat="49.1799" lon="6.68007">
        <ele>221.5</ele>
        <time>2018-12-06T14:31:28Z</time>
      </trkpt>
      <trkpt lat="49.18002" lon="6.68016">
        <ele>222.3</ele>
        <time>2018-12-06T14:31:39Z</time>
      </trkpt>
      <trkpt lat="49.18015" lon="6.68023">
        <ele>223</ele>
        <time>2018-12-06T14:31:49Z</time>
      </trkpt>
      <trkpt lat="49.18029" lon="6.68029">
        <ele>223.8</ele>
        <time>2018-12-06T14:32:00Z</time>
      </trkpt>
      <trkpt lat="49.1804" lon="6.6804">
        <ele>224.5</ele>
        <time>2018-12-06T14:32:10Z</time>
      </trkpt>
      <trkpt lat="49.18041" lon="6.68041">
        <ele>224.5</ele>
        <time>2018-12-06T14:32:11Z</time>
      </trkpt>
      <trkpt lat="49.18052" lon="6.68054">
        <ele>224.1</ele>
        <time>2018-12-06T14:32:20Z</time>
      </trkpt>
      <trkpt lat="49.18063" lon="6.68069">
        <ele>223.4</ele>
        <time>2018-12-06T14:32:33Z</time>
      </trkpt>
      <trkpt lat="49.18076" lon="6.68078">
        <ele>222.7</ele>
        <time>2018-12-06T14:32:47Z</time>
      </trkpt>
      <trkpt lat="49.1809" lon="6.68081">
        <ele>222</ele>
        <time>2018-12-06T14:33:00Z</time>
      </trkpt>
      <trkpt lat="49.18099" lon="6.68077">
        <ele>221.5</ele>
        <time>2018-12-06T14:33:10Z</time>
      </trkpt>
      <trkpt lat="49.18102" lon="6.68076">
        <ele>220.9</ele>
        <time>2018-12-06T14:33:14Z</time>
      </trkpt>
      <trkpt lat="49.18116" lon="6.68072">
        <ele>218</ele>
        <time>2018-12-06T14:33:33Z</time>
      </trkpt>
      <trkpt lat="49.18117" lon="6.68072">
        <ele>217.9</ele>
        <time>2018-12-06T14:33:34Z</time>
      </trkpt>
      <trkpt lat="49.1813" lon="6.6808">
        <ele>215.6</ele>
        <time>2018-12-06T14:33:53Z</time>
      </trkpt>
      <trkpt lat="49.18138" lon="6.68091">
        <ele>214.2</ele>
        <time>2018-12-06T14:34:04Z</time>
      </trkpt>
      <trkpt lat="49.18141" lon="6.68094">
        <ele>214.1</ele>
        <time>2018-12-06T14:34:08Z</time>
      </trkpt>
      <trkpt lat="49.18142" lon="6.68096">
        <ele>214</ele>
        <time>2018-12-06T14:34:10Z</time>
      </trkpt>
      <trkpt lat="49.18152" lon="6.68106">
        <ele>214.9</ele>
        <time>2018-12-06T14:34:22Z</time>
      </trkpt>
      <trkpt lat="49.18165" lon="6.68117">
        <ele>215.8</ele>
        <time>2018-12-06T14:34:34Z</time>
      </trkpt>
      <trkpt lat="49.18176" lon="6.68131">
        <ele>216.7</ele>
        <time>2018-12-06T14:34:46Z</time>
      </trkpt>
      <trkpt lat="49.18183" lon="6.6814">
        <ele>217.6</ele>
        <time>2018-12-06T14:34:58Z</time>
      </trkpt>
      <trkpt lat="49.18186" lon="6.68146">
        <ele>218.9</ele>
        <time>2018-12-06T14:35:05Z</time>
      </trkpt>
      <trkpt lat="49.18191" lon="6.68153">
        <ele>220.9</ele>
        <time>2018-12-06T14:35:16Z</time>
      </trkpt>
      <trkpt lat="49.18197" lon="6.68162">
        <ele>221.4</ele>
        <time>2018-12-06T14:35:28Z</time>
      </trkpt>
      <trkpt lat="49.182" lon="6.68166">
        <ele>221.6</ele>
        <time>2018-12-06T14:35:34Z</time>
      </trkpt>
      <trkpt lat="49.18208" lon="6.68175">
        <ele>222.6</ele>
        <time>2018-12-06T14:35:46Z</time>
      </trkpt>
      <trkpt lat="49.18209" lon="6.68176">
        <ele>222.7</ele>
        <time>2018-12-06T14:35:47Z</time>
      </trkpt>
      <trkpt lat="49.1822" lon="6.68186">
        <ele>223.2</ele>
        <time>2018-12-06T14:36:00Z</time>
      </trkpt>
      <trkpt lat="49.18234" lon="6.68197">
        <ele>223.8</ele>
        <time>2018-12-06T14:36:14Z</time>
      </trkpt>
      <trkpt lat="49.18247" lon="6.68206">
        <ele>224.3</ele>
        <time>2018-12-06T14:36:28Z</time>
      </trkpt>
      <trkpt lat="49.18259" lon="6.68214">
        <ele>224.9</ele>
        <time>2018-12-06T14:36:41Z</time>
      </trkpt>
      <trkpt lat="49.1827" lon="6.68225">
        <ele>225.3</ele>
        <time>2018-12-06T14:36:51Z</time>
      </trkpt>
      <trkpt lat="49.18277" lon="6.68241">
        <ele>225.9</ele>
        <time>2018-12-06T14:37:07Z</time>
      </trkpt>
      <trkpt lat="49.18277" lon="6.68242">
        <ele>226</ele>
        <time>2018-12-06T14:37:08Z</time>
      </trkpt>
      <trkpt lat="49.18283" lon="6.6826">
        <ele>225.1</ele>
        <time>2018-12-06T14:37:28Z</time>
      </trkpt>
      <trkpt lat="49.18292" lon="6.68263">
        <ele>224.4</ele>
        <time>2018-12-06T14:37:44Z</time>
      </trkpt>
      <trkpt lat="49.18298" lon="6.68253">
        <ele>223.7</ele>
        <time>2018-12-06T14:38:00Z</time>
      </trkpt>
      <trkpt lat="49.18305" lon="6.68251">
        <ele>223.1</ele>
        <time>2018-12-06T14:38:15Z</time>
      </trkpt>
      <trkpt lat="49.18311" lon="6.68254">
        <ele>222.6</ele>
        <time>2018-12-06T14:38:26Z</time>
      </trkpt>
      <trkpt lat="49.18315" lon="6.68256">
        <ele>221.1</ele>
        <time>2018-12-06T14:38:34Z</time>
      </trkpt>
      <trkpt lat="49.18321" lon="6.68261">
        <ele>219.1</ele>
        <time>2018-12-06T14:38:44Z</time>
      </trkpt>
      <trkpt lat="49.18325" lon="6.68263">
        <ele>218.5</ele>
        <time>2018-12-06T14:38:50Z</time>
      </trkpt>
      <trkpt lat="49.18328" lon="6.68266">
        <ele>218.1</ele>
        <time>2018-12-06T14:38:55Z</time>
      </trkpt>
      <trkpt lat="49.18339" lon="6.68277">
        <ele>217.1</ele>
        <time>2018-12-06T14:39:08Z</time>
      </trkpt>
      <trkpt lat="49.18346" lon="6.68282">
        <ele>216.7</ele>
        <time>2018-12-06T14:39:14Z</time>
      </trkpt>
      <trkpt lat="49.18354" lon="6.68287">
        <ele>216.4</ele>
        <time>2018-12-06T14:39:21Z</time>
      </trkpt>
      <trkpt lat="49.18368" lon="6.68292">
        <ele>216</ele>
        <time>2018-12-06T14:39:34Z</time>
      </trkpt>
      <trkpt lat="49.18382" lon="6.68294">
        <ele>215.5</ele>
        <time>2018-12-06T14:39:47Z</time>
      </trkpt>
      <trkpt lat="49.18396" lon="6.68297">
        <ele>215.1</ele>
        <time>2018-12-06T14:40:00Z</time>
      </trkpt>
      <trkpt lat="49.1841" lon="6.68303">
        <ele>214.5</ele>
        <time>2018-12-06T14:40:15Z</time>
      </trkpt>
      <trkpt lat="49.18423" lon="6.68303">
        <ele>214</ele>
        <time>2018-12-06T14:40:30Z</time>
      </trkpt>
      <trkpt lat="49.18437" lon="6.68301">
        <ele>213.5</ele>
        <time>2018-12-06T14:40:43Z</time>
      </trkpt>
      <trkpt lat="49.18438" lon="6.68301">
        <ele>213.5</ele>
        <time>2018-12-06T14:40:44Z</time>
      </trkpt>
      <trkpt lat="49.18441" lon="6.68299">
        <ele>213.7</ele>
        <time>2018-12-06T14:40:48Z</time>
      </trkpt>
      <trkpt lat="49.18445" lon="6.68298">
        <ele>213.9</ele>
        <time>2018-12-06T14:40:52Z</time>
      </trkpt>
      <trkpt lat="49.18448" lon="6.68295">
        <ele>214.1</ele>
        <time>2018-12-06T14:40:57Z</time>
      </trkpt>
      <trkpt lat="49.18452" lon="6.68288">
        <ele>214.4</ele>
        <time>2018-12-06T14:41:02Z</time>
      </trkpt>
      <trkpt lat="49.18463" lon="6.68277">
        <ele>215</ele>
        <time>2018-12-06T14:41:14Z</time>
      </trkpt>
      <trkpt lat="49.18477" lon="6.68273">
        <ele>215.6</ele>
        <time>2018-12-06T14:41:26Z</time>
      </trkpt>
      <trkpt lat="49.1849" lon="6.68274">
        <ele>216.3</ele>
        <time>2018-12-06T14:41:41Z</time>
      </trkpt>
      <trkpt lat="49.18496" lon="6.68272">
        <ele>216.8</ele>
        <time>2018-12-06T14:41:50Z</time>
      </trkpt>
      <trkpt lat="49.18502" lon="6.6827">
        <ele>215.2</ele>
        <time>2018-12-06T14:41:59Z</time>
      </trkpt>
      <trkpt lat="49.18509" lon="6.68264">
        <ele>213.5</ele>
        <time>2018-12-06T14:42:08Z</time>
      </trkpt>
      <trkpt lat="49.18511" lon="6.68263">
        <ele>213.4</ele>
        <time>2018-12-06T14:42:11Z</time>
      </trkpt>
      <trkpt lat="49.18519" lon="6.68255">
        <ele>213.2</ele>
        <time>2018-12-06T14:42:22Z</time>
      </trkpt>
      <trkpt lat="49.18531" lon="6.68248">
        <ele>213</ele>
        <time>2018-12-06T14:42:36Z</time>
      </trkpt>
      <trkpt lat="49.18545" lon="6.68248">
        <ele>212.8</ele>
        <time>2018-12-06T14:42:50Z</time>
      </trkpt>
      <trkpt lat="49.18558" lon="6.68244">
        <ele>212.5</ele>
        <time>2018-12-06T14:43:04Z</time>
      </trkpt>
      <trkpt lat="49.18569" lon="6.68233">
        <ele>212.3</ele>
        <time>2018-12-06T14:43:15Z</time>
      </trkpt>
      <trkpt lat="49.1858" lon="6.68221">
        <ele>212.1</ele>
        <time>2018-12-06T14:43:27Z</time>
      </trkpt>
      <trkpt lat="49.18592" lon="6.6821">
        <ele>211.9</ele>
        <time>2018-12-06T14:43:38Z</time>
      </trkpt>
      <trkpt lat="49.18605" lon="6.68201">
        <ele>211.8</ele>
        <time>2018-12-06T14:43:48Z</time>
      </trkpt>
      <trkpt lat="49.18616" lon="6.68198">
        <ele>211.6</ele>
        <time>2018-12-06T14:43:58Z</time>
      </trkpt>
      <trkpt lat="49.18628" lon="6.68193">
        <ele>211.4</ele>
        <time>2018-12-06T14:44:07Z</time>
      </trkpt>
      <trkpt lat="49.1864" lon="6.68185">
        <ele>211.3</ele>
        <time>2018-12-06T14:44:17Z</time>
      </trkpt>
      <trkpt lat="49.18655" lon="6.68182">
        <ele>211.1</ele>
        <time>2018-12-06T14:44:29Z</time>
      </trkpt>
      <trkpt lat="49.18669" lon="6.68179">
        <ele>210.9</ele>
        <time>2018-12-06T14:44:40Z</time>
      </trkpt>
      <trkpt lat="49.18682" lon="6.68171">
        <ele>210.7</ele>
        <time>2018-12-06T14:44:49Z</time>
      </trkpt>
      <trkpt lat="49.18696" lon="6.68161">
        <ele>210.6</ele>
        <time>2018-12-06T14:44:58Z</time>
      </trkpt>
      <trkpt lat="49.18709" lon="6.68153">
        <ele>210.4</ele>
        <time>2018-12-06T14:45:07Z</time>
      </trkpt>
      <trkpt lat="49.1871" lon="6.68152">
        <ele>210.4</ele>
        <time>2018-12-06T14:45:08Z</time>
      </trkpt>
      <trkpt lat="49.18722" lon="6.68142">
        <ele>210.5</ele>
        <time>2018-12-06T14:45:17Z</time>
      </trkpt>
      <trkpt lat="49.18733" lon="6.68129">
        <ele>210.7</ele>
        <time>2018-12-06T14:45:24Z</time>
      </trkpt>
      <trkpt lat="49.18745" lon="6.68117">
        <ele>210.8</ele>
        <time>2018-12-06T14:45:31Z</time>
      </trkpt>
      <trkpt lat="49.18756" lon="6.68104">
        <ele>210.9</ele>
        <time>2018-12-06T14:45:40Z</time>
      </trkpt>
      <trkpt lat="49.18768" lon="6.68091">
        <ele>211.1</ele>
        <time>2018-12-06T14:45:52Z</time>
      </trkpt>
      <trkpt lat="49.18782" lon="6.68079">
        <ele>211.3</ele>
        <time>2018-12-06T14:46:04Z</time>
      </trkpt>
      <trkpt lat="49.18793" lon="6.68064">
        <ele>211.5</ele>
        <time>2018-12-06T14:46:15Z</time>
      </trkpt>
      <trkpt lat="49.18804" lon="6.68052">
        <ele>211.7</ele>
        <time>2018-12-06T14:46:30Z</time>
      </trkpt>
      <trkpt lat="49.18817" lon="6.68042">
        <ele>211.9</ele>
        <time>2018-12-06T14:46:44Z</time>
      </trkpt>
      <trkpt lat="49.1883" lon="6.6803">
        <ele>212.1</ele>
        <time>2018-12-06T14:46:54Z</time>
      </trkpt>
      <trkpt lat="49.18842" lon="6.68017">
        <ele>212.3</ele>
        <time>2018-12-06T14:47:06Z</time>
      </trkpt>
      <trkpt lat="49.18853" lon="6.68003">
        <ele>212.5</ele>
        <time>2018-12-06T14:47:20Z</time>
      </trkpt>
      <trkpt lat="49.18863" lon="6.67987">
        <ele>212.7</ele>
        <time>2018-12-06T14:47:35Z</time>
      </trkpt>
      <trkpt lat="49.18872" lon="6.6797">
        <ele>212.9</ele>
        <time>2018-12-06T14:47:49Z</time>
      </trkpt>
      <trkpt lat="49.18882" lon="6.67955">
        <ele>213.2</ele>
        <time>2018-12-06T14:48:03Z</time>
      </trkpt>
      <trkpt lat="49.18892" lon="6.67943">
        <ele>213.4</ele>
        <time>2018-12-06T14:48:18Z</time>
      </trkpt>
      <trkpt lat="49.18903" lon="6.67929">
        <ele>213.6</ele>
        <time>2018-12-06T14:48:33Z</time>
      </trkpt>
      <trkpt lat="49.18915" lon="6.67922">
        <ele>213.9</ele>
        <time>2018-12-06T14:48:47Z</time>
      </trkpt>
      <trkpt lat="49.18918" lon="6.6792">
        <ele>213.9</ele>
        <time>2018-12-06T14:48:50Z</time>
      </trkpt>
      <trkpt lat="49.18928" lon="6.67916">
        <ele>212.9</ele>
        <time>2018-12-06T14:49:02Z</time>
      </trkpt>
      <trkpt lat="49.18942" lon="6.67909">
        <ele>211.6</ele>
        <time>2018-12-06T14:49:17Z</time>
      </trkpt>
      <trkpt lat="49.18951" lon="6.67903">
        <ele>210.8</ele>
        <time>2018-12-06T14:49:26Z</time>
      </trkpt>
      <trkpt lat="49.18954" lon="6.67901">
        <ele>210.9</ele>
        <time>2018-12-06T14:49:29Z</time>
      </trkpt>
      <trkpt lat="49.18967" lon="6.67901">
        <ele>211.2</ele>
        <time>2018-12-06T14:49:40Z</time>
      </trkpt>
      <trkpt lat="49.18979" lon="6.67912">
        <ele>211.6</ele>
        <time>2018-12-06T14:49:52Z</time>
      </trkpt>
      <trkpt lat="49.18993" lon="6.67923">
        <ele>212.1</ele>
        <time>2018-12-06T14:50:07Z</time>
      </trkpt>
      <trkpt lat="49.19006" lon="6.6793">
        <ele>212.5</ele>
        <time>2018-12-06T14:50:19Z</time>
      </trkpt>
      <trkpt lat="49.1902" lon="6.67939">
        <ele>212.9</ele>
        <time>2018-12-06T14:50:30Z</time>
      </trkpt>
      <trkpt lat="49.19032" lon="6.67947">
        <ele>213.3</ele>
        <time>2018-12-06T14:50:42Z</time>
      </trkpt>
      <trkpt lat="49.19044" lon="6.67956">
        <ele>213.7</ele>
        <time>2018-12-06T14:50:56Z</time>
      </trkpt>
      <trkpt lat="49.19048" lon="6.6796">
        <ele>213.9</ele>
        <time>2018-12-06T14:51:01Z</time>
      </trkpt>
      <trkpt lat="49.19057" lon="6.67967">
        <ele>213.8</ele>
        <time>2018-12-06T14:51:12Z</time>
      </trkpt>
      <trkpt lat="49.19069" lon="6.67978">
        <ele>213.6</ele>
        <time>2018-12-06T14:51:28Z</time>
      </trkpt>
      <trkpt lat="49.19083" lon="6.67992">
        <ele>213.5</ele>
        <time>2018-12-06T14:51:40Z</time>
      </trkpt>
      <trkpt lat="49.19097" lon="6.68005">
        <ele>213.3</ele>
        <time>2018-12-06T14:51:53Z</time>
      </trkpt>
      <trkpt lat="49.19109" lon="6.68018">
        <ele>213.2</ele>
        <time>2018-12-06T14:52:08Z</time>
      </trkpt>
      <trkpt lat="49.19118" lon="6.68029">
        <ele>213.1</ele>
        <time>2018-12-06T14:52:17Z</time>
      </trkpt>
      <trkpt lat="49.19128" lon="6.68028">
        <ele>213</ele>
        <time>2018-12-06T14:52:25Z</time>
      </trkpt>
      <trkpt lat="49.1914" lon="6.68017">
        <ele>212.8</ele>
        <time>2018-12-06T14:52:36Z</time>
      </trkpt>
      <trkpt lat="49.19153" lon="6.68017">
        <ele>212.7</ele>
        <time>2018-12-06T14:52:53Z</time>
      </trkpt>
      <trkpt lat="49.19164" lon="6.68029">
        <ele>212.5</ele>
        <time>2018-12-06T14:53:07Z</time>
      </trkpt>
      <trkpt lat="49.19173" lon="6.68046">
        <ele>212.4</ele>
        <time>2018-12-06T14:53:19Z</time>
      </trkpt>
      <trkpt lat="49.19179" lon="6.68066">
        <ele>212.2</ele>
        <time>2018-12-06T14:53:33Z</time>
      </trkpt>
      <trkpt lat="49.19186" lon="6.68084">
        <ele>212.1</ele>
        <time>2018-12-06T14:53:44Z</time>
      </trkpt>
      <trkpt lat="49.19194" lon="6.68102">
        <ele>212</ele>
        <time>2018-12-06T14:53:55Z</time>
      </trkpt>
      <trkpt lat="49.19201" lon="6.68119">
        <ele>211.8</ele>
        <time>2018-12-06T14:54:09Z</time>
      </trkpt>
      <trkpt lat="49.19211" lon="6.68131">
        <ele>211.7</ele>
        <time>2018-12-06T14:54:20Z</time>
      </trkpt>
      <trkpt lat="49.19224" lon="6.6814">
        <ele>211.6</ele>
        <time>2018-12-06T14:54:30Z</time>
      </trkpt>
      <trkpt lat="49.19237" lon="6.68149">
        <ele>211.5</ele>
        <time>2018-12-06T14:54:41Z</time>
      </trkpt>
      <trkpt lat="49.19249" lon="6.68158">
        <ele>211.4</ele>
        <time>2018-12-06T14:54:49Z</time>
      </trkpt>
      <trkpt lat="49.19267" lon="6.68166">
        <ele>211.3</ele>
        <time>2018-12-06T14:54:57Z</time>
      </trkpt>
      <trkpt lat="49.19284" lon="6.68179">
        <ele>211.1</ele>
        <time>2018-12-06T14:55:13Z</time>
      </trkpt>
      <trkpt lat="49.19295" lon="6.68193">
        <ele>210.9</ele>
        <time>2018-12-06T14:55:30Z</time>
      </trkpt>
      <trkpt lat="49.19306" lon="6.68208">
        <ele>210.8</ele>
        <time>2018-12-06T14:55:44Z</time>
      </trkpt>
      <trkpt lat="49.19318" lon="6.68221">
        <ele>210.6</ele>
        <time>2018-12-06T14:55:57Z</time>
      </trkpt>
      <trkpt lat="49.1932" lon="6.68224">
        <ele>210.6</ele>
        <time>2018-12-06T14:56:00Z</time>
      </trkpt>
      <trkpt lat="49.19329" lon="6.68234">
        <ele>210.5</ele>
        <time>2018-12-06T14:56:09Z</time>
      </trkpt>
      <trkpt lat="49.19339" lon="6.68251">
        <ele>210.4</ele>
        <time>2018-12-06T14:56:22Z</time>
      </trkpt>
      <trkpt lat="49.19347" lon="6.68267">
        <ele>210.3</ele>
        <time>2018-12-06T14:56:34Z</time>
      </trkpt>
      <trkpt lat="49.19355" lon="6.68283">
        <ele>210.2</ele>
        <time>2018-12-06T14:56:46Z</time>
      </trkpt>
      <trkpt lat="49.19355" lon="6.68284">
        <ele>210.1</ele>
        <time>2018-12-06T14:56:47Z</time>
      </trkpt>
      <trkpt lat="49.19363" lon="6.68303">
        <ele>210</ele>
        <time>2018-12-06T14:57:01Z</time>
      </trkpt>
      <trkpt lat="49.19372" lon="6.68322">
        <ele>209.9</ele>
        <time>2018-12-06T14:57:13Z</time>
      </trkpt>
      <trkpt lat="49.19379" lon="6.68341">
        <ele>209.8</ele>
        <time>2018-12-06T14:57:25Z</time>
      </trkpt>
      <trkpt lat="49.19384" lon="6.68363">
        <ele>209.6</ele>
        <time>2018-12-06T14:57:38Z</time>
      </trkpt>
      <trkpt lat="49.1939" lon="6.68383">
        <ele>209.5</ele>
        <time>2018-12-06T14:57:51Z</time>
      </trkpt>
      <trkpt lat="49.19399" lon="6.68401">
        <ele>209.4</ele>
        <time>2018-12-06T14:58:04Z</time>
      </trkpt>
      <trkpt lat="49.19408" lon="6.68417">
        <ele>209.2</ele>
        <time>2018-12-06T14:58:16Z</time>
      </trkpt>
      <trkpt lat="49.19417" lon="6.68434">
        <ele>209.1</ele>
        <time>2018-12-06T14:58:28Z</time>
      </trkpt>
      <trkpt lat="49.19425" lon="6.6845">
        <ele>209</ele>
        <time>2018-12-06T14:58:39Z</time>
      </trkpt>
      <trkpt lat="49.19434" lon="6.68469">
        <ele>208.9</ele>
        <time>2018-12-06T14:58:49Z</time>
      </trkpt>
      <trkpt lat="49.1944" lon="6.68486">
        <ele>208.8</ele>
        <time>2018-12-06T14:58:57Z</time>
      </trkpt>
      <trkpt lat="49.19448" lon="6.68502">
        <ele>208.7</ele>
        <time>2018-12-06T14:59:14Z</time>
      </trkpt>
      <trkpt lat="49.19457" lon="6.68519">
        <ele>208.5</ele>
        <time>2018-12-06T14:59:33Z</time>
      </trkpt>
      <trkpt lat="49.19465" lon="6.68537">
        <ele>208.3</ele>
        <time>2018-12-06T14:59:44Z</time>
      </trkpt>
      <trkpt lat="49.19474" lon="6.68554">
        <ele>208.2</ele>
        <time>2018-12-06T14:59:55Z</time>
      </trkpt>
      <trkpt lat="49.19482" lon="6.68574">
        <ele>208.1</ele>
        <time>2018-12-06T15:00:07Z</time>
      </trkpt>
      <trkpt lat="49.19487" lon="6.68592">
        <ele>208</ele>
        <time>2018-12-06T15:00:17Z</time>
      </trkpt>
      <trkpt lat="49.19494" lon="6.68611">
        <ele>207.9</ele>
        <time>2018-12-06T15:00:28Z</time>
      </trkpt>
      <trkpt lat="49.19501" lon="6.68629">
        <ele>207.8</ele>
        <time>2018-12-06T15:00:40Z</time>
      </trkpt>
      <trkpt lat="49.1951" lon="6.68646">
        <ele>207.7</ele>
        <time>2018-12-06T15:00:52Z</time>
      </trkpt>
      <trkpt lat="49.19518" lon="6.68663">
        <ele>207.5</ele>
        <time>2018-12-06T15:01:04Z</time>
      </trkpt>
      <trkpt lat="49.19519" lon="6.68665">
        <ele>207.5</ele>
        <time>2018-12-06T15:01:05Z</time>
      </trkpt>
      <trkpt lat="49.19527" lon="6.68682">
        <ele>207.5</ele>
        <time>2018-12-06T15:01:16Z</time>
      </trkpt>
      <trkpt lat="49.19534" lon="6.68702">
        <ele>207.5</ele>
        <time>2018-12-06T15:01:28Z</time>
      </trkpt>
      <trkpt lat="49.1954" lon="6.68722">
        <ele>207.5</ele>
        <time>2018-12-06T15:01:41Z</time>
      </trkpt>
      <trkpt lat="49.19547" lon="6.6874">
        <ele>207.5</ele>
        <time>2018-12-06T15:01:52Z</time>
      </trkpt>
      <trkpt lat="49.19557" lon="6.68757">
        <ele>207.5</ele>
        <time>2018-12-06T15:02:05Z</time>
      </trkpt>
      <trkpt lat="49.19565" lon="6.68775">
        <ele>207.5</ele>
        <time>2018-12-06T15:02:20Z</time>
      </trkpt>
      <trkpt lat="49.19572" lon="6.68794">
        <ele>207.5</ele>
        <time>2018-12-06T15:02:33Z</time>
      </trkpt>
      <trkpt lat="49.19579" lon="6.68815">
        <ele>207.5</ele>
        <time>2018-12-06T15:02:46Z</time>
      </trkpt>
      <trkpt lat="49.19586" lon="6.68834">
        <ele>207.5</ele>
        <time>2018-12-06T15:02:58Z</time>
      </trkpt>
      <trkpt lat="49.19595" lon="6.68852">
        <ele>207.5</ele>
        <time>2018-12-06T15:03:10Z</time>
      </trkpt>
      <trkpt lat="49.19604" lon="6.68869">
        <ele>207.5</ele>
        <time>2018-12-06T15:03:22Z</time>
      </trkpt>
      <trkpt lat="49.19612" lon="6.68888">
        <ele>207.5</ele>
        <time>2018-12-06T15:03:34Z</time>
      </trkpt>
      <trkpt lat="49.19619" lon="6.68908">
        <ele>207.5</ele>
        <time>2018-12-06T15:03:45Z</time>
      </trkpt>
      <trkpt lat="49.19627" lon="6.68925">
        <ele>207.4</ele>
        <time>2018-12-06T15:03:57Z</time>
      </trkpt>
      <trkpt lat="49.19636" lon="6.68941">
        <ele>207.4</ele>
        <time>2018-12-06T15:04:10Z</time>
      </trkpt>
      <trkpt lat="49.19644" lon="6.68958">
        <ele>207.4</ele>
        <time>2018-12-06T15:04:21Z</time>
      </trkpt>
      <trkpt lat="49.19652" lon="6.68978">
        <ele>207.4</ele>
        <time>2018-12-06T15:04:33Z</time>
      </trkpt>
      <trkpt lat="49.19658" lon="6.68996">
        <ele>207.4</ele>
        <time>2018-12-06T15:04:44Z</time>
      </trkpt>
      <trkpt lat="49.19665" lon="6.69016">
        <ele>207.4</ele>
        <time>2018-12-06T15:04:56Z</time>
      </trkpt>
      <trkpt lat="49.19672" lon="6.69034">
        <ele>207.4</ele>
        <time>2018-12-06T15:05:07Z</time>
      </trkpt>
      <trkpt lat="49.19679" lon="6.69052">
        <ele>207.4</ele>
        <time>2018-12-06T15:05:19Z</time>
      </trkpt>
      <trkpt lat="49.19686" lon="6.6907">
        <ele>207.4</ele>
        <time>2018-12-06T15:05:32Z</time>
      </trkpt>
      <trkpt lat="49.19693" lon="6.69089">
        <ele>207.4</ele>
        <time>2018-12-06T15:05:45Z</time>
      </trkpt>
      <trkpt lat="49.19702" lon="6.69105">
        <ele>207.4</ele>
        <time>2018-12-06T15:05:57Z</time>
      </trkpt>
      <trkpt lat="49.19711" lon="6.69122">
        <ele>207.4</ele>
        <time>2018-12-06T15:06:08Z</time>
      </trkpt>
      <trkpt lat="49.19719" lon="6.69138">
        <ele>207.4</ele>
        <time>2018-12-06T15:06:18Z</time>
      </trkpt>
      <trkpt lat="49.19728" lon="6.69156">
        <ele>207.4</ele>
        <time>2018-12-06T15:06:30Z</time>
      </trkpt>
      <trkpt lat="49.19737" lon="6.69174">
        <ele>207.4</ele>
        <time>2018-12-06T15:06:43Z</time>
      </trkpt>
      <trkpt lat="49.19745" lon="6.69191">
        <ele>207.4</ele>
        <time>2018-12-06T15:06:55Z</time>
      </trkpt>
      <trkpt lat="49.19753" lon="6.69208">
        <ele>207.3</ele>
        <time>2018-12-06T15:07:07Z</time>
      </trkpt>
      <trkpt lat="49.19763" lon="6.69225">
        <ele>207.3</ele>
        <time>2018-12-06T15:07:20Z</time>
      </trkpt>
      <trkpt lat="49.19773" lon="6.6924">
        <ele>207.3</ele>
        <time>2018-12-06T15:07:33Z</time>
      </trkpt>
      <trkpt lat="49.19783" lon="6.69256">
        <ele>207.3</ele>
        <time>2018-12-06T15:07:45Z</time>
      </trkpt>
      <trkpt lat="49.1979" lon="6.69274">
        <ele>207.3</ele>
        <time>2018-12-06T15:07:57Z</time>
      </trkpt>
      <trkpt lat="49.19797" lon="6.69292">
        <ele>207.3</ele>
        <time>2018-12-06T15:08:10Z</time>
      </trkpt>
      <trkpt lat="49.19801" lon="6.69312">
        <ele>207.3</ele>
        <time>2018-12-06T15:08:25Z</time>
      </trkpt>
      <trkpt lat="49.19809" lon="6.69326">
        <ele>207.3</ele>
        <time>2018-12-06T15:08:40Z</time>
      </trkpt>
      <trkpt lat="49.19822" lon="6.69332">
        <ele>207.3</ele>
        <time>2018-12-06T15:08:53Z</time>
      </trkpt>
      <trkpt lat="49.19837" lon="6.69335">
        <ele>207.3</ele>
        <time>2018-12-06T15:09:07Z</time>
      </trkpt>
      <trkpt lat="49.1985" lon="6.69338">
        <ele>207.3</ele>
        <time>2018-12-06T15:09:19Z</time>
      </trkpt>
      <trkpt lat="49.19864" lon="6.69342">
        <ele>207.3</ele>
        <time>2018-12-06T15:09:31Z</time>
      </trkpt>
      <trkpt lat="49.19877" lon="6.69337">
        <ele>207.3</ele>
        <time>2018-12-06T15:09:43Z</time>
      </trkpt>
      <trkpt lat="49.19884" lon="6.6932">
        <ele>207.3</ele>
        <time>2018-12-06T15:09:55Z</time>
      </trkpt>
      <trkpt lat="49.1989" lon="6.693">
        <ele>207.3</ele>
        <time>2018-12-06T15:10:08Z</time>
      </trkpt>
      <trkpt lat="49.19896" lon="6.6928">
        <ele>207.2</ele>
        <time>2018-12-06T15:10:21Z</time>
      </trkpt>
      <trkpt lat="49.19901" lon="6.6926">
        <ele>207.2</ele>
        <time>2018-12-06T15:10:34Z</time>
      </trkpt>
      <trkpt lat="49.19908" lon="6.6924">
        <ele>207.2</ele>
        <time>2018-12-06T15:10:48Z</time>
      </trkpt>
      <trkpt lat="49.19911" lon="6.6922">
        <ele>207.2</ele>
        <time>2018-12-06T15:11:00Z</time>
      </trkpt>
      <trkpt lat="49.1991" lon="6.69198">
        <ele>207.2</ele>
        <time>2018-12-06T15:11:13Z</time>
      </trkpt>
      <trkpt lat="49.1991" lon="6.69181">
        <ele>207.2</ele>
        <time>2018-12-06T15:11:24Z</time>
      </trkpt>
      <trkpt lat="49.19915" lon="6.69168">
        <ele>207.2</ele>
        <time>2018-12-06T15:11:34Z</time>
      </trkpt>
      <trkpt lat="49.19924" lon="6.69151">
        <ele>207.2</ele>
        <time>2018-12-06T15:11:53Z</time>
      </trkpt>
    </trkseg>
  </trk>
</gpx>